Time;durP1;ratioP1;P1;durP2;ratioP2;P2;SDS_P1;SDS_P2;PMS_P1;PMS_P2;Temp;Humidity;BMP_temperature;BMP_pressure;BME280_temperature;BME280_humidity;BME280_pressure;Samples;Min_cycle;Max_cycle;Signal;HPM_P1;HPM_P2
2022/01/18 00:01:27;;;;;;;0.40;0.40;;;6.90;99.90;;;;;;5012223;28;20203;-78
2022/01/18 00:03:53;;;;;;;0.40;0.30;;;6.90;99.90;;;;;;5012148;28;20214;-77
2022/01/18 00:06:20;;;;;;;0.40;0.40;;;6.90;99.90;;;;;;5012797;28;20226;-77
2022/01/18 00:08:47;;;;;;;0.40;0.38;;;6.90;99.90;;;;;;5011848;28;20207;-76
2022/01/18 00:11:18;;;;;;;0.40;0.40;;;7.00;99.90;;;;;;5012346;28;20233;-78
2022/01/18 00:13:47;;;;;;;0.40;0.40;;;6.90;99.90;;;;;;5012269;28;20197;-77
2022/01/18 00:16:29;;;;;;;0.40;0.40;;;6.90;99.90;;;;;;5011548;28;20273;-78
2022/01/18 00:19:00;;;;;;;0.40;0.40;;;6.90;99.90;;;;;;5012157;28;20198;-78
2022/01/18 00:21:51;;;;;;;0.40;0.40;;;6.90;99.90;;;;;;5012814;28;20229;-78
2022/01/18 00:24:17;;;;;;;0.40;0.40;;;6.90;99.90;;;;;;5012298;28;20303;-76
2022/01/18 00:26:46;;;;;;;0.40;0.40;;;6.90;99.90;;;;;;5013446;28;20229;-78
2022/01/18 00:29:16;;;;;;;0.40;0.40;;;6.80;99.90;;;;;;5012602;28;20288;-78
2022/01/18 00:32:01;;;;;;;0.95;0.63;;;6.80;99.90;;;;;;5012641;28;20221;-79
2022/01/18 00:34:31;;;;;;;0.40;0.30;;;6.80;99.90;;;;;;5013026;28;20268;-79
2022/01/18 00:37:11;;;;;;;0.40;0.30;;;6.80;99.90;;;;;;5011633;28;20272;-79
2022/01/18 00:39:40;;;;;;;0.40;0.40;;;6.80;99.90;;;;;;5012770;28;20179;-79
2022/01/18 00:42:10;;;;;;;0.40;0.38;;;6.80;99.90;;;;;;5012960;28;20687;-79
2022/01/18 00:44:37;;;;;;;0.40;0.40;;;6.80;99.90;;;;;;5012893;28;20242;-78
2022/01/18 00:47:04;;;;;;;0.40;0.30;;;6.80;99.90;;;;;;5012324;28;20231;-79
2022/01/18 00:49:32;;;;;;;0.40;0.30;;;6.80;99.90;;;;;;5013136;28;20964;-79
2022/01/18 00:52:03;;;;;;;0.40;0.30;;;6.80;99.90;;;;;;5014237;28;20203;-78
2022/01/18 00:54:37;;;;;;;0.40;0.35;;;6.80;99.90;;;;;;5013062;28;20182;-77
2022/01/18 00:57:04;;;;;;;0.40;0.35;;;6.80;99.90;;;;;;5012026;28;20230;-77
2022/01/18 00:59:32;;;;;;;0.40;0.30;;;6.90;99.90;;;;;;5012963;28;20199;-78
2022/01/18 01:01:59;;;;;;;0.40;0.40;;;6.80;99.90;;;;;;5011916;28;20209;-79
2022/01/18 01:04:29;;;;;;;0.40;0.30;;;6.80;99.90;;;;;;5013470;28;20200;-78
2022/01/18 01:06:56;;;;;;;0.40;0.38;;;6.90;99.90;;;;;;5016123;28;20220;-81
2022/01/18 01:09:23;;;;;;;0.40;0.40;;;6.90;99.90;;;;;;5015936;28;20198;-79
2022/01/18 01:11:50;;;;;;;0.40;0.40;;;6.80;99.90;;;;;;5015904;28;20212;-77
2022/01/18 01:14:21;;;;;;;0.40;0.32;;;6.80;99.90;;;;;;5015626;28;20197;-79
2022/01/18 01:16:57;;;;;;;0.40;0.40;;;6.90;99.90;;;;;;5015085;28;20218;-78
2022/01/18 01:36:27;;;;;;;0.50;0.40;;;6.90;99.90;;;;;;5014930;28;20241;-78
2022/01/18 01:41:50;;;;;;;0.40;0.30;;;6.90;99.90;;;;;;5014775;28;20261;-77
2022/01/18 01:44:27;;;;;;;0.40;0.40;;;6.90;99.90;;;;;;5015126;28;20208;-77
2022/01/18 01:46:54;;;;;;;0.40;0.32;;;6.80;99.90;;;;;;5014715;28;20231;-78
2022/01/18 01:49:23;;;;;;;0.40;0.40;;;6.90;99.90;;;;;;5014362;28;20200;-77
2022/01/18 01:51:50;;;;;;;0.40;0.30;;;6.90;99.90;;;;;;5014691;28;20225;-74
2022/01/18 01:54:18;;;;;;;0.40;0.30;;;6.80;99.90;;;;;;5014557;28;20198;-77
2022/01/18 01:56:45;;;;;;;0.40;0.40;;;6.80;99.90;;;;;;5014929;28;20559;-77
2022/01/18 01:59:13;;;;;;;0.40;0.40;;;6.80;99.90;;;;;;5014544;28;20206;-77
2022/01/18 02:01:42;;;;;;;0.40;0.40;;;6.80;99.90;;;;;;5014609;28;20198;-78
2022/01/18 02:04:10;;;;;;;0.40;0.40;;;6.80;99.90;;;;;;5013929;28;20698;-77
2022/01/18 02:06:39;;;;;;;0.40;0.30;;;6.80;99.90;;;;;;5014479;28;20226;-78
2022/01/18 02:09:05;;;;;;;0.40;0.40;;;6.80;99.90;;;;;;5014211;28;20195;-78
2022/01/18 02:11:32;;;;;;;0.40;0.40;;;6.80;99.90;;;;;;5014242;28;20237;-77
2022/01/18 02:14:00;;;;;;;0.50;0.30;;;6.80;99.90;;;;;;5013918;28;20200;-77
2022/01/18 02:21:57;;;;;;;0.40;0.40;;;6.80;99.90;;;;;;5014408;28;20181;-78
2022/01/18 02:24:24;;;;;;;0.40;0.38;;;6.80;99.90;;;;;;5013946;28;20648;-78
2022/01/18 02:26:51;;;;;;;0.40;0.40;;;6.80;99.90;;;;;;5014045;28;20216;-78
2022/01/18 02:29:19;;;;;;;0.45;0.45;;;6.80;99.90;;;;;;5013923;28;20210;-78
2022/01/18 02:31:47;;;;;;;0.40;0.40;;;6.80;99.90;;;;;;5013681;28;20258;-76
2022/01/18 02:34:16;;;;;;;0.40;0.30;;;6.80;99.90;;;;;;5013938;28;20281;-78
2022/01/18 02:36:43;;;;;;;0.40;0.40;;;6.80;99.90;;;;;;5014022;28;20214;-76
2022/01/18 02:39:12;;;;;;;0.40;0.40;;;6.80;99.90;;;;;;5013235;28;20210;-78
2022/01/18 02:41:40;;;;;;;0.40;0.30;;;6.80;99.90;;;;;;5013471;28;20193;-78
2022/01/18 02:44:11;;;;;;;0.40;0.30;;;6.80;99.90;;;;;;5013869;28;20201;-78
2022/01/18 02:46:38;;;;;;;0.40;0.40;;;6.80;99.90;;;;;;5013593;28;20234;-78
2022/01/18 02:49:06;;;;;;;0.40;0.30;;;6.80;99.90;;;;;;5013259;28;20901;-78
2022/01/18 02:51:33;;;;;;;0.40;0.40;;;6.70;99.90;;;;;;5013806;28;20211;-78
2022/01/18 02:54:03;;;;;;;0.40;0.30;;;6.80;99.90;;;;;;5013318;28;20209;-78
2022/01/18 02:56:33;;;;;;;0.40;0.30;;;6.70;99.90;;;;;;5013771;28;20713;-79
2022/01/18 02:59:13;;;;;;;0.40;0.32;;;6.80;99.90;;;;;;5013271;28;20746;-78
2022/01/18 03:04:24;;;;;;;0.40;0.40;;;6.80;99.90;;;;;;5013587;28;20287;-77
2022/01/18 03:06:51;;;;;;;0.40;0.40;;;6.80;99.90;;;;;;5013778;28;20229;-78
2022/01/18 03:09:18;;;;;;;0.90;0.90;;;6.80;99.90;;;;;;5013084;28;20194;-78
2022/01/18 03:11:46;;;;;;;0.40;0.30;;;6.80;99.90;;;;;;5013198;28;20219;-77
2022/01/18 03:14:13;;;;;;;0.40;0.40;;;6.80;99.90;;;;;;5013050;28;20648;-78
2022/01/18 03:16:41;;;;;;;0.40;0.40;;;6.80;99.90;;;;;;5013124;28;20222;-79
2022/01/18 03:19:08;;;;;;;0.40;0.40;;;6.90;99.90;;;;;;5013028;28;20284;-78
2022/01/18 03:21:34;;;;;;;0.40;0.40;;;6.90;99.90;;;;;;5013087;28;20194;-78
2022/01/18 03:24:14;;;;;;;0.40;0.40;;;6.80;99.90;;;;;;5013067;28;20207;-78
2022/01/18 03:29:23;;;;;;;0.40;0.30;;;6.90;99.90;;;;;;5012221;28;20692;-78
2022/01/18 03:31:50;;;;;;;0.40;0.40;;;6.80;99.90;;;;;;5012650;28;20377;-77
2022/01/18 03:34:16;;;;;;;0.40;0.30;;;6.80;99.90;;;;;;5013035;28;20197;-78
2022/01/18 03:36:44;;;;;;;0.40;0.30;;;6.80;99.90;;;;;;5013104;28;20703;-75
2022/01/18 03:39:11;;;;;;;0.40;0.40;;;6.80;99.90;;;;;;5013143;28;20232;-78
2022/01/18 03:41:37;;;;;;;0.40;0.40;;;6.80;99.90;;;;;;5014305;28;20195;-77
2022/01/18 03:44:04;;;;;;;0.40;0.40;;;6.80;99.90;;;;;;5012871;28;20200;-77
2022/01/18 03:46:36;;;;;;;0.40;0.30;;;6.80;99.90;;;;;;5012580;28;20243;-78
2022/01/18 03:49:04;;;;;;;0.40;0.40;;;6.80;99.90;;;;;;5012481;28;20606;-77
2022/01/18 03:51:31;;;;;;;0.40;0.40;;;6.80;99.90;;;;;;5012439;28;20266;-78
2022/01/18 03:53:58;;;;;;;0.40;0.40;;;6.80;99.90;;;;;;5012677;28;20199;-78
2022/01/18 03:56:25;;;;;;;0.40;0.40;;;6.80;99.90;;;;;;5012705;28;20228;-78
2022/01/18 03:58:51;;;;;;;0.40;0.40;;;6.70;99.90;;;;;;5014819;28;20210;-77
2022/01/18 04:01:18;;;;;;;0.40;0.30;;;6.70;99.90;;;;;;5012356;28;20197;-78
2022/01/18 04:03:47;;;;;;;0.40;0.30;;;6.60;99.90;;;;;;5011714;28;20193;-78
2022/01/18 04:06:13;;;;;;;0.40;0.40;;;6.60;99.90;;;;;;5012342;28;20586;-78
2022/01/18 04:08:40;;;;;;;1.13;1.02;;;6.60;99.90;;;;;;5012581;28;20216;-78
2022/01/18 04:11:07;;;;;;;0.40;0.30;;;6.50;99.90;;;;;;5012047;28;20218;-78
2022/01/18 04:13:34;;;;;;;0.40;0.40;;;6.50;99.90;;;;;;5012411;28;20194;-78
2022/01/18 04:16:00;;;;;;;0.40;0.40;;;6.40;99.90;;;;;;5012077;28;20208;-78
2022/01/18 04:18:32;;;;;;;0.40;0.40;;;6.50;99.90;;;;;;5012468;28;20199;-78
2022/01/18 04:29:13;;;;;;;0.40;0.40;;;6.40;99.90;;;;;;5012212;28;20217;-78
2022/01/18 04:31:41;;;;;;;0.40;0.30;;;6.40;99.90;;;;;;5012050;28;20225;-78
2022/01/18 04:34:07;;;;;;;0.40;0.40;;;6.30;99.90;;;;;;5012066;28;20231;-77
2022/01/18 04:36:36;;;;;;;0.40;0.40;;;6.30;99.90;;;;;;5012045;28;20220;-77
2022/01/18 04:39:04;;;;;;;0.40;0.30;;;6.30;99.90;;;;;;5011752;28;20202;-78
2022/01/18 04:41:31;;;;;;;0.40;0.30;;;6.20;99.90;;;;;;5015939;28;20613;-78
2022/01/18 04:49:42;;;;;;;0.40;0.40;;;6.20;99.90;;;;;;4974271;28;20226;-78
2022/01/18 04:52:12;;;;;;;0.40;0.40;;;6.20;99.90;;;;;;4996993;28;20229;-78
2022/01/18 04:54:42;;;;;;;0.40;0.40;;;6.20;99.90;;;;;;5015766;28;20199;-77
2022/01/18 04:59:55;;;;;;;0.40;0.40;;;6.20;99.90;;;;;;5015680;28;20697;-77
2022/01/18 05:02:21;;;;;;;0.40;0.30;;;6.20;99.90;;;;;;5015430;28;20201;-77
2022/01/18 05:04:49;;;;;;;0.40;0.30;;;6.30;99.90;;;;;;5015615;28;20203;-78
2022/01/18 05:07:18;;;;;;;0.40;0.40;;;6.30;99.90;;;;;;5015426;28;20283;-76
2022/01/18 05:09:49;;;;;;;0.40;0.40;;;6.30;99.90;;;;;;5015889;28;20543;-78
2022/01/18 05:12:24;;;;;;;0.40;0.40;;;6.30;99.90;;;;;;5015818;28;20197;-78
2022/01/18 05:14:53;;;;;;;0.40;0.40;;;6.40;99.90;;;;;;5015691;28;20546;-79
2022/01/18 05:17:37;;;;;;;0.40;0.40;;;6.40;99.90;;;;;;5016347;28;20219;-78
2022/01/18 05:20:35;;;;;;;0.40;0.30;;;6.40;99.90;;;;;;5015711;28;20181;-78
2022/01/18 05:23:02;;;;;;;0.40;0.40;;;6.50;99.90;;;;;;5015549;28;20273;-78
2022/01/18 05:25:29;;;;;;;0.40;0.40;;;6.50;99.90;;;;;;5015909;28;20201;-77
2022/01/18 05:27:57;;;;;;;0.40;0.40;;;6.50;99.90;;;;;;5015597;28;20252;-79
2022/01/18 05:30:25;;;;;;;0.40;0.40;;;6.50;99.90;;;;;;5015127;28;20225;-78
2022/01/18 05:32:52;;;;;;;0.40;0.30;;;6.50;99.90;;;;;;5015327;28;20214;-80
2022/01/18 05:35:19;;;;;;;0.40;0.40;;;6.50;99.90;;;;;;5015554;28;20699;-78
2022/01/18 05:37:46;;;;;;;0.40;0.40;;;6.50;99.90;;;;;;5014874;28;20278;-78
2022/01/18 05:40:15;;;;;;;0.40;0.30;;;6.60;99.90;;;;;;5015154;28;20193;-79
2022/01/18 05:42:42;;;;;;;0.40;0.30;;;6.60;99.90;;;;;;5015112;28;20198;-78
2022/01/18 05:45:10;;;;;;;0.40;0.30;;;6.60;99.90;;;;;;5015611;28;20205;-77
2022/01/18 05:47:37;;;;;;;0.40;0.40;;;6.60;99.90;;;;;;5014757;28;20662;-79
2022/01/18 05:50:05;;;;;;;0.40;0.40;;;6.60;99.90;;;;;;5014446;28;20207;-78
2022/01/18 05:52:32;;;;;;;2.33;0.93;;;6.60;99.90;;;;;;5014772;28;20234;-79
2022/01/18 05:54:58;;;;;;;0.40;0.40;;;6.50;99.90;;;;;;5016336;28;20195;-77
2022/01/18 05:57:27;;;;;;;0.40;0.30;;;6.60;99.90;;;;;;5016143;28;20223;-78
2022/01/18 06:00:00;;;;;;;0.40;0.38;;;6.50;99.90;;;;;;5017815;28;20664;-80
2022/01/18 06:02:37;;;;;;;0.40;0.40;;;6.40;99.90;;;;;;5016110;28;20193;-79
2022/01/18 06:07:48;;;;;;;0.40;0.40;;;6.50;99.90;;;;;;5016608;28;20287;-78
2022/01/18 06:10:15;;;;;;;0.40;0.40;;;6.40;99.90;;;;;;5015269;28;20213;-79
2022/01/18 06:12:43;;;;;;;0.40;0.35;;;6.40;99.90;;;;;;5016359;28;20215;-78
2022/01/18 06:15:11;;;;;;;0.40;0.30;;;6.50;99.90;;;;;;5015576;28;20229;-79
2022/01/18 06:17:38;;;;;;;0.40;0.32;;;6.50;99.90;;;;;;5015459;28;20225;-79
2022/01/18 06:20:06;;;;;;;0.40;0.40;;;6.50;99.90;;;;;;5014408;28;20205;-76
2022/01/18 06:22:33;;;;;;;0.40;0.40;;;6.50;99.90;;;;;;5014641;28;20265;-77
2022/01/18 06:25:00;;;;;;;0.40;0.30;;;6.50;99.90;;;;;;5014211;28;20201;-78
2022/01/18 06:27:27;;;;;;;0.40;0.30;;;6.50;99.90;;;;;;5013847;28;20730;-78
2022/01/18 06:29:55;;;;;;;0.40;0.38;;;6.50;99.90;;;;;;5014753;28;20214;-78
2022/01/18 06:32:22;;;;;;;0.40;0.40;;;6.50;99.90;;;;;;5015571;28;20299;-79
2022/01/18 06:34:49;;;;;;;0.40;0.30;;;6.50;99.90;;;;;;5014768;28;20205;-78
2022/01/18 06:37:16;;;;;;;0.40;0.40;;;6.40;99.90;;;;;;5015606;28;20223;-78
2022/01/18 06:39:42;;;;;;;0.40;0.30;;;6.50;99.90;;;;;;5014384;28;20941;-79
2022/01/18 06:42:12;;;;;;;0.40;0.30;;;6.50;99.90;;;;;;5013988;28;20209;-78
2022/01/18 06:44:39;;;;;;;0.40;0.30;;;6.50;99.90;;;;;;5016066;28;20199;-78
2022/01/18 06:47:07;;;;;;;0.73;0.73;;;6.50;99.90;;;;;;5013662;28;20230;-78
2022/01/18 06:49:34;;;;;;;0.40;0.30;;;6.50;99.90;;;;;;5014180;28;20672;-79
2022/01/18 06:52:00;;;;;;;0.40;0.40;;;6.60;99.90;;;;;;5018684;28;20222;-79
2022/01/18 06:54:27;;;;;;;0.40;0.30;;;6.50;99.90;;;;;;5016777;28;20203;-78
2022/01/18 06:56:54;;;;;;;0.40;0.40;;;6.50;99.90;;;;;;5019072;28;20336;-77
2022/01/18 06:59:21;;;;;;;0.40;0.40;;;6.60;99.90;;;;;;5019761;28;20220;-80
2022/01/18 07:01:48;;;;;;;0.40;0.40;;;6.60;99.90;;;;;;5014130;28;20193;-78
2022/01/18 07:04:16;;;;;;;0.40;0.35;;;6.60;99.90;;;;;;5014773;28;20198;-76
2022/01/18 07:06:45;;;;;;;0.40;0.40;;;6.60;99.90;;;;;;5025956;28;20212;-80
2022/01/18 07:09:12;;;;;;;0.40;0.32;;;6.60;99.90;;;;;;5029835;28;20213;-79
2022/01/18 07:11:39;;;;;;;0.40;0.40;;;6.60;99.90;;;;;;5013687;28;20304;-77
2022/01/18 07:14:06;;;;;;;0.40;0.40;;;6.60;99.90;;;;;;5005305;28;20208;-78
2022/01/18 07:16:33;;;;;;;0.52;0.52;;;6.60;99.90;;;;;;4980916;28;20219;-78
2022/01/18 07:18:59;;;;;;;0.63;0.63;;;6.60;99.90;;;;;;4973314;28;20204;-77
2022/01/18 07:21:27;;;;;;;1.05;1.05;;;6.60;99.90;;;;;;4973982;28;20195;-77
2022/01/18 07:24:03;;;;;;;0.40;0.40;;;6.60;99.90;;;;;;4973073;28;20669;-78
2022/01/18 07:26:30;;;;;;;0.40;0.40;;;6.60;99.90;;;;;;4974373;28;20681;-78
2022/01/18 07:28:57;;;;;;;0.40;0.32;;;6.60;99.90;;;;;;4974099;28;20210;-77
2022/01/18 07:31:24;;;;;;;0.40;0.30;;;6.60;99.90;;;;;;4979083;28;20231;-76
2022/01/18 07:33:51;;;;;;;0.40;0.40;;;6.60;99.90;;;;;;4973381;28;20214;-76
2022/01/18 07:36:17;;;;;;;0.40;0.40;;;6.70;99.90;;;;;;4973468;28;20213;-76
2022/01/18 07:38:45;;;;;;;0.40;0.40;;;6.70;99.90;;;;;;4981735;28;20214;-77
2022/01/18 07:41:12;;;;;;;0.40;0.38;;;6.70;99.90;;;;;;5025867;22;20225;-80
2022/01/18 07:43:40;;;;;;;0.40;0.40;;;6.80;99.90;;;;;;5015556;28;20287;-80
2022/01/18 07:46:07;;;;;;;0.40;0.30;;;6.80;99.90;;;;;;5017478;28;20205;-80
2022/01/18 07:48:34;;;;;;;0.40;0.40;;;6.80;99.90;;;;;;5017775;28;20194;-81
2022/01/18 07:51:01;;;;;;;0.40;0.40;;;6.80;99.90;;;;;;5016863;28;20225;-80
2022/01/18 07:53:28;;;;;;;2.63;1.85;;;6.80;99.90;;;;;;5016894;28;20221;-80
2022/01/18 07:55:56;;;;;;;0.68;0.68;;;6.80;99.90;;;;;;5017753;28;20203;-80
2022/01/18 07:58:23;;;;;;;0.50;0.40;;;6.80;99.90;;;;;;5017434;28;20197;-78
2022/01/18 08:00:49;;;;;;;0.40;0.30;;;6.80;99.90;;;;;;5021864;28;20532;-79
2022/01/18 08:03:17;;;;;;;0.40;0.40;;;6.80;99.90;;;;;;5016787;28;20195;-80
2022/01/18 08:05:45;;;;;;;0.52;0.52;;;6.90;99.90;;;;;;5017247;28;20201;-80
2022/01/18 08:08:11;;;;;;;0.45;0.40;;;6.90;99.90;;;;;;5016945;28;20196;-80
2022/01/18 08:10:39;;;;;;;0.40;0.40;;;6.90;99.90;;;;;;5017295;28;20225;-80
2022/01/18 08:13:08;;;;;;;0.40;0.40;;;7.00;99.90;;;;;;5019633;28;20282;-79
2022/01/18 08:15:38;;;;;;;0.40;0.40;;;7.00;99.90;;;;;;5028608;28;20253;-78
2022/01/18 08:18:07;;;;;;;0.40;0.40;;;7.00;99.90;;;;;;5024081;28;20206;-80
2022/01/18 08:20:34;;;;;;;1.23;1.10;;;7.10;99.90;;;;;;5023366;28;20233;-80
2022/01/18 08:23:01;;;;;;;0.73;0.73;;;7.10;99.90;;;;;;5023434;28;20222;-79
2022/01/18 08:25:29;;;;;;;0.40;0.40;;;7.10;99.90;;;;;;5024290;28;20202;-80
2022/01/18 08:27:56;;;;;;;1.15;1.15;;;7.10;99.90;;;;;;5023084;28;20199;-80
2022/01/18 08:30:25;;;;;;;0.50;0.40;;;7.10;99.90;;;;;;5022701;28;20232;-80
2022/01/18 08:32:54;;;;;;;0.50;0.50;;;7.10;99.90;;;;;;5022861;28;20216;-80
2022/01/18 08:35:21;;;;;;;0.40;0.32;;;7.20;99.90;;;;;;5023294;28;20608;-80
2022/01/18 08:37:48;;;;;;;0.80;0.80;;;7.30;99.90;;;;;;5023039;28;20198;-80
2022/01/18 08:40:15;;;;;;;0.40;0.30;;;7.30;99.90;;;;;;5023412;28;20223;-79
2022/01/18 08:42:42;;;;;;;6.72;2.60;;;7.40;99.90;;;;;;5023321;28;20199;-80
2022/01/18 08:45:09;;;;;;;0.40;0.40;;;7.50;99.90;;;;;;5022823;28;20197;-80
2022/01/18 08:47:37;;;;;;;1.25;1.25;;;7.50;99.90;;;;;;5023278;28;20205;-80
2022/01/18 08:50:05;;;;;;;0.50;0.40;;;7.60;99.90;;;;;;5022857;28;20231;-80
2022/01/18 08:52:32;;;;;;;0.50;0.40;;;7.70;99.90;;;;;;5023592;28;20219;-80
2022/01/18 08:54:59;;;;;;;0.47;0.40;;;7.80;99.90;;;;;;5022941;28;20242;-79
2022/01/18 08:57:26;;;;;;;0.40;0.30;;;7.80;99.90;;;;;;5023117;28;20199;-80
2022/01/18 08:59:53;;;;;;;0.50;0.40;;;7.80;99.90;;;;;;5022225;28;20470;-80
2022/01/18 09:02:20;;;;;;;0.60;0.50;;;7.90;99.90;;;;;;5023684;28;20226;-80
2022/01/18 09:04:50;;;;;;;1.02;1.02;;;8.00;99.90;;;;;;5022419;28;20241;-81
2022/01/18 09:07:19;;;;;;;0.40;0.30;;;8.10;99.90;;;;;;5024010;28;20269;-80
2022/01/18 09:09:48;;;;;;;0.98;0.98;;;8.20;99.90;;;;;;5022962;28;20213;-81
2022/01/18 09:12:17;;;;;;;0.50;0.40;;;8.40;99.90;;;;;;5022916;28;20219;-81
2022/01/18 09:14:44;;;;;;;0.50;0.40;;;8.50;99.90;;;;;;5023423;28;20207;-81
2022/01/18 09:17:11;;;;;;;0.50;0.40;;;8.60;99.90;;;;;;5023670;28;20207;-81
2022/01/18 09:19:38;;;;;;;0.50;0.40;;;8.70;99.90;;;;;;5022839;28;20209;-80
2022/01/18 09:22:06;;;;;;;17.17;1.60;;;8.70;99.90;;;;;;5023181;28;20243;-80
2022/01/18 09:24:33;;;;;;;1.05;0.65;;;8.80;99.90;;;;;;5022952;28;20196;-81
2022/01/18 09:27:00;;;;;;;0.50;0.40;;;8.90;99.90;;;;;;5018999;28;20206;-80
2022/01/18 09:29:27;;;;;;;0.63;0.57;;;8.80;99.90;;;;;;5020141;28;20202;-79
2022/01/18 09:31:53;;;;;;;0.50;0.40;;;8.80;99.90;;;;;;5019338;28;20702;-80
2022/01/18 09:34:20;;;;;;;3.03;2.90;;;8.80;99.90;;;;;;5020119;28;20192;-79
2022/01/18 09:36:47;;;;;;;0.50;0.40;;;8.90;99.90;;;;;;5019395;28;20215;-80
2022/01/18 09:39:15;;;;;;;0.50;0.40;;;8.80;99.90;;;;;;5019331;28;20194;-80
2022/01/18 09:41:46;;;;;;;0.50;0.38;;;8.80;99.90;;;;;;5019408;28;20319;-80
2022/01/18 09:44:13;;;;;;;0.50;0.30;;;8.90;99.90;;;;;;5019617;28;20198;-82
2022/01/18 09:46:40;;;;;;;0.50;0.30;;;8.80;99.90;;;;;;5018978;28;20192;-79
2022/01/18 09:49:08;;;;;;;0.50;0.40;;;8.80;99.90;;;;;;5020111;28;20210;-80
2022/01/18 09:51:35;;;;;;;0.98;0.98;;;8.90;99.90;;;;;;5019716;28;20215;-81
2022/01/18 09:54:02;;;;;;;0.50;0.40;;;8.90;99.90;;;;;;5019095;28;20219;-80
2022/01/18 09:56:30;;;;;;;0.50;0.40;;;8.90;99.90;;;;;;5019957;28;20199;-82
2022/01/18 09:58:57;;;;;;;0.50;0.40;;;8.90;99.90;;;;;;5018710;28;20203;-77
2022/01/18 10:01:25;;;;;;;0.50;0.40;;;8.90;99.90;;;;;;5021117;28;20223;-81
2022/01/18 10:03:52;;;;;;;0.50;0.40;;;8.80;99.90;;;;;;5020388;28;20195;-81
2022/01/18 10:06:20;;;;;;;0.60;0.60;;;8.90;99.90;;;;;;5019808;28;20218;-80
2022/01/18 10:08:49;;;;;;;0.50;0.40;;;9.00;99.90;;;;;;5019741;28;20201;-81
2022/01/18 10:11:17;;;;;;;0.50;0.40;;;9.10;99.90;;;;;;5018500;28;20212;-81
2022/01/18 10:13:48;;;;;;;0.50;0.38;;;9.10;99.90;;;;;;5019346;28;20212;-81
2022/01/18 10:16:16;;;;;;;0.50;0.40;;;9.30;99.90;;;;;;5018212;28;20196;-80
2022/01/18 10:18:47;;;;;;;2.28;2.17;;;9.40;99.90;;;;;;5018688;28;20206;-81
2022/01/18 10:21:15;;;;;;;0.88;0.88;;;9.50;99.90;;;;;;5019188;28;20215;-81
2022/01/18 10:23:49;;;;;;;0.50;0.40;;;9.50;99.90;;;;;;5022855;28;20191;-81
2022/01/18 10:26:21;;;;;;;0.50;0.40;;;9.50;99.90;;;;;;5023525;28;20214;-81
2022/01/18 10:29:00;;;;;;;0.50;0.35;;;9.60;99.90;;;;;;5019069;28;20196;-81
2022/01/18 10:31:33;;;;;;;1.05;0.95;;;9.60;99.90;;;;;;5019561;28;20244;-81
2022/01/18 10:34:24;;;;;;;1.27;1.20;;;9.60;99.90;;;;;;5018468;28;20353;-81
2022/01/18 10:37:00;;;;;;;0.50;0.40;;;9.70;99.90;;;;;;5018336;28;20184;-80
2022/01/18 10:39:29;;;;;;;0.50;0.40;;;9.80;99.90;;;;;;5018630;28;20191;-81
2022/01/18 10:41:56;;;;;;;1.70;1.25;;;9.90;99.90;;;;;;5018471;28;20215;-81
2022/01/18 10:44:25;;;;;;;0.50;0.40;;;10.10;99.90;;;;;;5019137;28;20199;-81
2022/01/18 10:46:54;;;;;;;0.75;0.75;;;10.30;99.90;;;;;;5019147;28;20192;-81
2022/01/18 10:49:30;;;;;;;0.60;0.60;;;10.40;99.90;;;;;;5018319;28;20199;-80
2022/01/18 10:52:04;;;;;;;0.50;0.40;;;10.50;99.90;;;;;;5018701;28;20224;-81
2022/01/18 10:54:36;;;;;;;5.28;1.30;;;10.80;99.90;;;;;;5018640;28;20245;-81
2022/01/18 10:57:06;;;;;;;0.93;0.93;;;11.30;99.90;;;;;;5019554;28;20195;-81
2022/01/18 10:59:37;;;;;;;0.50;0.50;;;11.40;99.90;;;;;;5019076;28;20542;-81
2022/01/18 11:02:10;;;;;;;0.50;0.40;;;11.70;99.90;;;;;;5019730;28;20463;-79
2022/01/18 11:04:38;;;;;;;0.50;0.40;;;11.80;99.90;;;;;;5019400;28;20431;-81
2022/01/18 11:07:06;;;;;;;0.50;0.40;;;11.80;99.90;;;;;;5018822;28;20447;-81
2022/01/18 11:09:33;;;;;;;0.50;0.40;;;11.60;99.90;;;;;;5017707;28;20202;-81
2022/01/18 11:12:01;;;;;;;0.50;0.40;;;11.60;99.90;;;;;;5018263;28;20216;-81
2022/01/18 11:14:30;;;;;;;0.50;0.40;;;11.60;99.90;;;;;;5017981;28;20474;-81
2022/01/18 11:16:59;;;;;;;0.50;0.37;;;11.60;99.90;;;;;;5017813;28;20450;-80
2022/01/18 11:19:35;;;;;;;0.50;0.40;;;11.80;99.90;;;;;;5017402;28;20530;-81
2022/01/18 11:22:06;;;;;;;0.50;0.40;;;12.20;99.90;;;;;;5018043;28;20466;-79
2022/01/18 11:24:35;;;;;;;0.50;0.40;;;12.10;99.90;;;;;;5019166;28;20424;-80
2022/01/18 11:27:06;;;;;;;0.50;0.40;;;11.90;99.90;;;;;;5018287;28;20196;-81
2022/01/18 11:29:34;;;;;;;0.50;0.40;;;11.70;99.90;;;;;;5017335;28;20463;-81
2022/01/18 11:32:03;;;;;;;1.08;0.98;;;11.60;99.90;;;;;;5017676;28;20888;-80
2022/01/18 11:34:39;;;;;;;0.50;0.40;;;11.50;99.90;;;;;;5017722;28;20226;-81
2022/01/18 11:37:16;;;;;;;0.50;0.40;;;11.30;99.90;;;;;;5017545;28;20434;-81
2022/01/18 11:39:42;;;;;;;1.77;1.67;;;11.00;99.90;;;;;;5017135;28;20195;-81
2022/01/18 11:42:12;;;;;;;0.50;0.40;;;10.90;99.90;;;;;;5017336;28;20231;-80
2022/01/18 11:44:40;;;;;;;2.00;1.80;;;10.90;99.90;;;;;;5015408;28;20196;-80
2022/01/18 11:47:09;;;;;;;0.50;0.40;;;10.80;99.90;;;;;;5016166;28;20500;-79
2022/01/18 11:49:37;;;;;;;3.05;2.30;;;10.70;99.90;;;;;;5016241;28;20860;-79
2022/01/18 11:52:08;;;;;;;62.47;56.17;;;10.50;99.90;;;;;;5015966;28;20220;-79
2022/01/18 11:54:42;;;;;;;0.50;0.40;;;10.40;99.90;;;;;;5016012;28;20306;-79
2022/01/18 11:57:34;;;;;;;4.50;2.50;;;10.40;99.90;;;;;;5016469;28;20274;-79
2022/01/18 12:00:22;;;;;;;2.58;2.38;;;10.90;99.90;;;;;;5016633;28;20470;-78
2022/01/18 12:02:54;;;;;;;2.20;2.03;;;11.60;99.90;;;;;;5028853;28;20210;-78
2022/01/18 12:05:24;;;;;;;0.50;0.50;;;11.80;99.90;;;;;;5027862;28;20207;-78
2022/01/18 12:07:57;;;;;;;0.93;0.93;;;11.70;99.90;;;;;;5027988;28;20443;-77
2022/01/18 12:10:45;;;;;;;0.50;0.40;;;11.40;99.90;;;;;;5027367;28;20471;-77
2022/01/18 12:13:23;;;;;;;0.50;0.40;;;11.30;99.90;;;;;;5022329;28;20466;-77
2022/01/18 12:15:51;;;;;;;0.50;0.40;;;11.10;99.90;;;;;;5026138;28;20439;-78
2022/01/18 12:18:21;;;;;;;0.50;0.40;;;11.10;99.90;;;;;;5024632;28;20473;-78
2022/01/18 12:20:49;;;;;;;0.50;0.40;;;11.00;99.90;;;;;;5016042;28;20219;-80
2022/01/18 12:23:17;;;;;;;0.50;0.40;;;11.20;99.90;;;;;;5015518;28;20199;-80
2022/01/18 12:25:56;;;;;;;0.50;0.47;;;11.50;99.90;;;;;;5015425;28;20435;-80
2022/01/18 12:34:38;;;;;;;0.50;0.40;;;11.50;99.90;;;;;;5012212;28;20482;-78
2022/01/18 12:37:37;;;;;;;0.50;0.40;;;11.50;99.90;;;;;;5026348;28;20430;-78
2022/01/18 12:40:08;;;;;;;0.50;0.40;;;11.40;99.90;;;;;;4965994;28;20707;-78
2022/01/18 12:45:25;;;;;;;5.65;2.85;;;10.90;99.90;;;;;;5027799;28;20190;-78
2022/01/18 12:47:55;;;;;;;0.60;0.50;;;10.70;99.90;;;;;;5027201;28;20202;-78
2022/01/18 12:50:25;;;;;;;0.50;0.40;;;10.50;99.90;;;;;;5027824;28;20618;-78
2022/01/18 12:52:54;;;;;;;2.58;2.42;;;10.50;99.90;;;;;;5026952;28;20199;-78
2022/01/18 12:55:27;;;;;;;0.60;0.60;;;10.40;99.90;;;;;;5028023;28;20199;-78
2022/01/18 12:58:09;;;;;;;2.97;2.88;;;10.30;99.90;;;;;;5024692;28;20199;-79
2022/01/18 13:00:38;;;;;;;0.50;0.40;;;10.20;99.90;;;;;;5016158;28;20230;-80
2022/01/18 13:03:05;;;;;;;0.50;0.40;;;10.20;99.90;;;;;;5017557;28;20223;-78
2022/01/18 13:05:39;;;;;;;0.50;0.50;;;10.20;99.90;;;;;;5019256;28;20205;-80
2022/01/18 13:08:07;;;;;;;2.35;2.25;;;10.20;99.90;;;;;;5020309;28;20760;-80
2022/01/18 13:10:39;;;;;;;0.70;0.70;;;10.10;99.90;;;;;;5023122;28;20219;-79
2022/01/18 13:13:07;;;;;;;0.50;0.40;;;10.00;99.90;;;;;;5018975;28;20567;-80
2022/01/18 13:15:50;;;;;;;1.95;1.13;;;9.90;99.90;;;;;;5019113;28;20196;-81
2022/01/18 13:24:02;;;;;;;2.15;1.30;;;9.50;99.90;;;;;;5017973;28;20186;-80
2022/01/18 13:26:32;;;;;;;0.50;0.40;;;9.40;99.90;;;;;;5018534;28;20285;-80
2022/01/18 13:29:11;;;;;;;0.70;0.70;;;9.30;99.90;;;;;;5017375;28;20205;-80
2022/01/18 13:31:38;;;;;;;1.95;1.88;;;9.40;99.90;;;;;;5017560;28;20759;-79
2022/01/18 13:34:05;;;;;;;0.50;0.40;;;9.40;99.90;;;;;;5018055;28;20254;-80
2022/01/18 13:36:47;;;;;;;0.50;0.40;;;9.30;99.90;;;;;;5018263;28;20208;-81
2022/01/18 13:39:28;;;;;;;1.33;1.23;;;9.30;99.90;;;;;;5015421;28;20191;-78
2022/01/18 13:41:55;;;;;;;0.50;0.40;;;9.20;99.90;;;;;;5004924;28;20249;-81
2022/01/18 13:46:51;;;;;;;0.50;0.50;;;9.20;99.90;;;;;;4985097;28;20252;-80
2022/01/18 13:49:23;;;;;;;0.50;0.40;;;9.10;99.90;;;;;;4984434;28;20673;-80
2022/01/18 13:52:08;;;;;;;0.50;0.40;;;9.20;99.90;;;;;;4989140;28;20654;-81
2022/01/18 13:54:45;;;;;;;0.77;0.77;;;9.30;99.90;;;;;;4991963;28;20232;-80
2022/01/18 13:57:12;;;;;;;0.50;0.40;;;9.40;99.90;;;;;;4979419;28;20683;-80
2022/01/18 13:59:39;;;;;;;0.50;0.40;;;9.60;99.90;;;;;;4981814;28;20201;-80
2022/01/18 14:02:14;;;;;;;0.50;0.40;;;9.90;99.90;;;;;;4989785;28;20240;-79
2022/01/18 14:04:41;;;;;;;0.50;0.40;;;10.00;99.90;;;;;;4977921;28;20216;-81
2022/01/18 14:07:10;;;;;;;0.50;0.40;;;10.00;99.90;;;;;;4980471;28;20548;-80
2022/01/18 14:09:37;;;;;;;0.50;0.40;;;10.00;99.90;;;;;;4980537;28;20205;-80
2022/01/18 14:12:05;;;;;;;0.50;0.40;;;10.00;99.90;;;;;;4980715;28;20203;-80
2022/01/18 14:14:34;;;;;;;0.50;0.40;;;10.00;99.90;;;;;;4981859;28;20756;-80